Hauptseite
METAR-TAF:

METAR-TAF

Flughäfen :

Celle, Deutschland

Heeresflugplatz Celle

Breite: 52-36N, Länge: 010-01E, Höhe: 39 m

Beobachtung

Neuester Wetterbericht von vor 39 Minuten, um 23:20 UTC
Windstille
Temperatur 1°C
Luftfeuchtigkeit 86%
Luftdruck 1033 hPa
Sichtweite 10 km oder mehr
Aufgelockert bewölkt in der Höhe von 24000 ft

METAR: ETHC 242320Z 00000KT 9999 SCT240 01/M01 Q1033 BLU+

Zeit: 00:59 (23:59 UTC)

Prognose

Neuester Wetterbericht von vor 12 Stunden und 22 Minuten, um 11:37 UTC
Gültige Prognose vom 24 um 09 UTC bis 24 um 18 UTC
Wind 10 kt aus Ost
Sichtweite: 1200 m
Aufgelockert bewölkt in der Höhe von 26000 ft

TAF: ETHC 241137Z 2409/2418 08010KT 9999 NSW SCT260 CANCEL 1200

Wetterbeobachtungen und Prognosen von mehr als 4000 Flughäfen (METAR und TAF Bericht).

Die verfügbaren Stationen werden durch gelbe und rote Markierungen auf der Karte dargestellt.

Führen Sie die Maus auf sie, um den Namen der Station zu sehen.

Darauf klicken, um die Beobachtung von Wetterbeobachtungen und Prognosen zu sehen.

Um die Karte zu ändern : klicken Sie auf den grünen Tasten mit einem schwarzen Kreuz Zum Vergrößern, auf den grünen Button mit einem Gedankenstrich zu verkleinern, oder auf die grünen Pfeile für benachbarte Karten.


METAR-TAF: